• Join FlightAware (Why Join?)
  • Login
  • US Flag 
10:16PM EDT


 

Airport Tracker/Info


-or-


 

Live Flight TrackerFlight Track Log ✈ SWA2236 ✈ 15-Jul-2013 ✈ KLAS - KJAX

Flight Track Log - Related Links

Times and Time Zones

All times are in EDT time to prevent confusion due to time zone crossing. See the SWA2236 flight status page for this flight to view local times or setup timezone preferences in your user account.

Time Position Orientation Groundspeed Altitude Reporting Facility
EDT Latitude Longitude Course Direction KTS MPH feet Rate Location/Type
02:45PM 36.0769 -115.1119 91° East 180 207 3,100  Level Los Angeles Center
02:46PM 36.0758 -115.0486 91° East 203 234 4,500 1,620 Climbing Los Angeles Center
02:47PM 36.0742 -114.9586 91° East 234 269 6,300 2,100 Climbing Los Angeles Center
02:48PM 36.0614 -114.8536 99° East 294 338 9,100 2,160 Climbing Los Angeles Center
02:49PM 36.0478 -114.7556 100° East 298 343 10,900 1,980 Climbing Los Angeles Center
02:50PM 36.0306 -114.6369 100° East 340 391 13,100 2,280 Climbing Los Angeles Center
02:51PM 36.0131 -114.5136 100° East 359 413 15,700 2,460 Climbing Los Angeles Center
02:52PM 35.9892 -114.3606 101° East 374 430 18,300 2,220 Climbing Los Angeles Center
02:53PM 35.9833 -114.2256 93° East 388 447 20,400 1,860 Climbing Los Angeles Center
02:54PM 35.9756 -114.0844 94° East 408 470 22,200 1,740 Climbing Los Angeles Center
02:55PM 35.9664 -113.9392 94° East 420 483 24,000 1,740 Climbing Los Angeles Center
02:56PM 35.9561 -113.7939 95° East 424 488 25,800 1,500 Climbing Los Angeles Center
02:57PM 35.9528 -113.6444 92° East 432 497 27,200 1,260 Climbing Los Angeles Center
02:58PM 35.9486 -113.4883 92° East 445 512 28,500 1,140 Climbing Los Angeles Center
02:59PM 35.9389 -113.3325 94° East 456 525 29,600 1,320 Climbing Los Angeles Center
03:00PM 35.9214 -113.1447 97° East 460 529 31,300 1,320 Climbing Los Angeles Center
03:01PM 35.9100 -112.9881 95° East 458 527 32,400 960 Climbing Los Angeles Center
03:02PM 35.8953 -112.8281 96° East 466 536 33,300 960 Climbing Los Angeles Center
03:03PM 35.8811 -112.6667 96° East 473 544 34,500 1,020 Climbing Los Angeles Center
03:04PM 35.8661 -112.5061 97° East 471 542 35,500 900 Climbing Los Angeles Center
03:06PM 35.8431 -112.2483 96° East 474 545 37,000 540 Climbing Los Angeles Center
03:07PM 35.8250 -112.0544 96° East 476 548 37,000  Level Los Angeles Center
03:08PM 35.8078 -111.8933 97° East 476 548 37,000  Level Los Angeles Center
03:09PM 35.7922 -111.7333 97° East 474 545 37,000  Level Los Angeles Center
03:10PM 35.7736 -111.5517 97° East 473 544 37,000  Level Los Angeles Center
03:11PM 35.7578 -111.3944 97° East 468 539 37,000  Level Los Angeles Center
03:12PM 35.7419 -111.2350 97° East 467 537 37,000  Level Los Angeles Center
03:13PM 35.7328 -111.1383 97° East 472 543 37,000  Level Denver Center
03:13PM 35.7203 -111.0342 98° East 472 543 37,000  Level Albuquerque Center
03:14PM 35.7064 -110.8814 96° East 471 542 37,000  Level Albuquerque Center
03:15PM 35.7128 -110.7031 87° East 469 540 37,000  Level Albuquerque Center
03:16PM 35.7144 -110.5494 89° East 469 540 37,000  Level Albuquerque Center
03:17PM 35.7164 -110.3717 89° East 467 537 37,000  Level Albuquerque Center
03:19PM 35.7175 -110.2197 89° East 465 535 37,000  Level Albuquerque Center
03:20PM 35.7197 -110.0192 89° East 462 532 37,000  Level Albuquerque Center
03:21PM 35.7203 -109.8678 90° East 462 532 37,000  Level Albuquerque Center
03:22PM 35.7292 -109.6933 86° East 460 529 37,000  Level Albuquerque Center
03:23PM 35.7431 -109.5433 83° East 462 532 37,000  Level Albuquerque Center
03:24PM 35.7458 -109.3667 89° East 462 532 37,000 -420 Level Albuquerque Center
03:25PM 35.7447 -109.2139 90° East 467 537 36,200 -900 Descending Albuquerque Center
03:26PM 35.7433 -109.0361 90° East 468 539 35,200 -600 Descending Albuquerque Center
03:27PM 35.7417 -108.8856 91° East 465 535 35,000 -120 Descending Albuquerque Center
03:28PM 35.7417 -108.7094 90° East 465 535 35,000  Level Albuquerque Center
03:29PM 35.7394 -108.5575 91° East 466 536 35,000  Level Albuquerque Center
03:30PM 35.7383 -108.3792 90° East 468 539 35,000  Level Albuquerque Center
03:31PM 35.7361 -108.2256 91° East 470 541 35,000  Level Albuquerque Center
03:32PM 35.7339 -108.0708 91° East 472 543 35,000  Level Albuquerque Center
03:33PM 35.7308 -107.8906 91° East 473 544 35,000  Level Albuquerque Center
03:34PM 35.7289 -107.7375 91° East 470 541 35,000  Level Albuquerque Center
03:35PM 35.7247 -107.5589 92° East 468 539 35,000  Level Albuquerque Center
03:36PM 35.7233 -107.4044 91° East 470 541 35,000  Level Albuquerque Center
03:37PM 35.7200 -107.2272 91° East 466 536 35,000  Level Albuquerque Center
03:38PM 35.7161 -107.0747 92° East 465 535 35,000  Level Albuquerque Center
03:39PM 35.7139 -106.8975 91° East 465 535 35,000  Level Albuquerque Center
03:40PM 35.7097 -106.7467 92° East 463 533 35,000  Level Albuquerque Center
03:41PM 35.7047 -106.5950 92° East 463 533 35,000  Level Albuquerque Center
03:42PM 35.6894 -106.4183 96° East 464 534 35,000  Level Albuquerque Center
03:43PM 35.6778 -106.2675 95° East 465 535 35,000  Level Albuquerque Center
03:44PM 35.6658 -106.1125 95° East 467 537 35,000  Level Albuquerque Center
03:45PM 35.6519 -105.9489 96° East 466 536 35,000  Level Albuquerque Center
03:46PM 35.6383 -105.7622 95° East 467 537 35,000  Level Albuquerque Center
03:48PM 35.6253 -105.6022 96° East 467 537 35,000  Level Albuquerque Center
03:49PM 35.6097 -105.4436 97° East 464 534 35,000  Level Albuquerque Center
03:50PM 35.5939 -105.2847 97° East 465 535 35,000  Level Albuquerque Center
03:51PM 35.5794 -105.1231 96° East 470 541 35,000  Level Albuquerque Center
03:52PM 35.5672 -104.9622 95° East 469 540 35,000  Level Albuquerque Center
03:53PM 35.5533 -104.8011 96° East 471 542 35,000 660 Level Albuquerque Center
03:54PM 35.5392 -104.6431 96° East 465 535 36,400 960 Climbing Albuquerque Center
03:55PM 35.5214 -104.4853 98° East 462 532 37,000 240 Climbing Albuquerque Center
03:56PM 35.4983 -104.3294 100° East 459 528 37,000  Level Albuquerque Center
03:57PM 35.4747 -104.1722 100° East 459 528 37,000  Level Albuquerque Center
03:58PM 35.4483 -103.9889 100° East 459 528 37,000  Level Albuquerque Center
03:59PM 35.4247 -103.8344 101° East 455 524 37,000  Level Albuquerque Center
04:00PM 35.4011 -103.6817 101° East 452 520 37,000  Level Albuquerque Center
04:01PM 35.3778 -103.5292 101° East 451 519 37,000  Level Albuquerque Center
04:02PM 35.3542 -103.3750 101° East 454 522 37,000  Level Albuquerque Center
04:03PM 35.3303 -103.2214 101° East 455 524 37,000  Level Albuquerque Center
04:04PM 35.3047 -103.0661 101° East 460 529 37,000  Level Albuquerque Center
04:05PM 35.2772 -102.8947 101° East 464 534 37,000  Level Albuquerque Center
04:06PM 35.2522 -102.7394 101° East 467 537 37,000  Level Albuquerque Center
04:07PM 35.2267 -102.5828 101° East 469 540 37,000  Level Albuquerque Center
04:08PM 35.2011 -102.4281 101° East 467 537 37,000  Level Albuquerque Center
04:09PM 35.1758 -102.2736 101° East 466 536 37,000  Level Albuquerque Center
04:10PM 35.1497 -102.1228 102° East 460 529 37,000  Level Albuquerque Center
04:11PM 35.1214 -101.9514 101° East 453 521 37,000  Level Albuquerque Center
04:12PM 35.0972 -101.7981 101° East 455 524 37,000  Level Albuquerque Center
04:13PM 35.0694 -101.6378 102° East 453 521 37,000  Level Albuquerque Center
04:14PM 35.0439 -101.4883 102° East 451 519 37,000  Level Albuquerque Center
04:15PM 35.0169 -101.3375 102° East 453 521 37,000  Level Albuquerque Center
04:16PM 34.9883 -101.1739 102° East 452 520 37,000  Level Albuquerque Center
04:17PM 34.9631 -101.0267 102° East 448 516 37,000  Level Albuquerque Center
04:18PM 34.9364 -100.8789 102° East 448 516 37,000  Level Albuquerque Center
04:19PM 34.9100 -100.7322 102° East 445 512 37,000  Level Albuquerque Center
04:20PM 34.8833 -100.5850 102° East 446 513 37,000  Level Albuquerque Center
04:21PM 34.8572 -100.4392 102° East 443 510 37,000  Level Albuquerque Center
04:22PM 34.8269 -100.2747 103° East 442 509 37,000  Level Albuquerque Center
04:24PM 34.8008 -100.1269 102° East 445 512 37,000  Level Albuquerque Center
04:25PM 34.7736 -99.9792 103° East 447 514 37,000  Level Albuquerque Center
04:26PM 34.7458 -99.8317 103° East 448 516 37,000  Level Albuquerque Center
04:27PM 34.7083 -99.6542 104° East 442 509 37,000  Level Fort Worth Center
04:28PM 34.6836 -99.5044 101° East 442 509 37,000  Level Fort Worth Center
04:29PM 34.6525 -99.3622 105° East 447 514 37,000  Level Fort Worth Center
04:30PM 34.6256 -99.2103 102° East 447 514 37,000  Level Fort Worth Center
04:31PM 34.5944 -99.0558 104° East 434 499 37,000  Level Fort Worth Center
04:32PM 34.5669 -98.9089 103° East 434 499 37,000  Level Fort Worth Center
04:33PM 34.5375 -98.7647 104° East 434 499 37,000  Level Fort Worth Center
04:34PM 34.5097 -98.6231 103° East 434 499 37,000  Level Fort Worth Center
04:35PM 34.4797 -98.4792 104° East 434 499 37,000  Level Fort Worth Center
04:36PM 34.4517 -98.3353 103° East 434 499 37,000  Level Fort Worth Center
04:37PM 34.4233 -98.1939 104° East 434 499 37,000 60 Level Fort Worth Center
04:38PM 34.3928 -98.0503 104° East 434 499 37,200 420 Climbing Fort Worth Center
04:39PM 34.3644 -97.9067 103° East 434 499 37,900 720 Climbing Fort Worth Center
04:40PM 34.3336 -97.7656 105° East 434 499 38,700 540 Climbing Fort Worth Center
04:41PM 34.3025 -97.6197 104° East 434 499 39,000 120 Climbing Fort Worth Center
04:42PM 34.2736 -97.4789 104° East 434 499 39,000  Level Fort Worth Center
04:43PM 34.2442 -97.3331 104° East 434 499 39,000  Level Fort Worth Center
04:44PM 34.2150 -97.1950 104° East 434 499 39,000  Level Fort Worth Center
04:45PM 34.1833 -97.0569 105° East 429 494 39,000  Level Fort Worth Center
04:46PM 34.1578 -96.9192 103° East 429 494 39,000  Level Fort Worth Center
04:47PM 34.1258 -96.7836 106° East 424 488 39,000  Level Fort Worth Center
04:48PM 34.0981 -96.6461 104° East 418 481 39,000  Level Fort Worth Center
04:49PM 34.0764 -96.5208 102° East 418 481 39,000  Level Fort Worth Center
04:50PM 34.0461 -96.3833 105° East 418 481 39,000  Level Fort Worth Center
04:51PM 34.0156 -96.2483 105° East 413 475 39,000  Level Fort Worth Center
04:52PM 33.9850 -96.1083 105° East 418 481 39,000  Level Fort Worth Center
04:53PM 33.9542 -95.9661 105° East 418 481 39,000  Level Fort Worth Center
04:54PM 33.9192 -95.8267 107° East 418 481 39,000  Level Fort Worth Center
04:55PM 33.8903 -95.6894 104° East 423 487 39,000  Level Fort Worth Center
04:56PM 33.8528 -95.5428 107° East 423 487 39,000  Level Fort Worth Center
04:57PM 33.8192 -95.4008 106° East 423 487 39,000  Level Fort Worth Center
04:58PM 33.7897 -95.2567 104° East 428 493 39,000  Level Fort Worth Center
04:59PM 33.7558 -95.1125 106° East 439 505 39,000  Level Fort Worth Center
05:00PM 33.7489 -94.9628 93° East 439 505 39,000  Level Fort Worth Center
05:01PM 33.7669 -94.8300 81° East 439 505 39,000  Level Fort Worth Center
05:02PM 33.7889 -94.6794 80° East 450 518 39,000  Level Fort Worth Center
05:03PM 33.8086 -94.5339 81° East 450 518 39,000  Level Fort Worth Center
05:04PM 33.8300 -94.3856 80° East 450 518 39,000  Level Fort Worth Center
05:05PM 33.8558 -94.2419 78° East 450 518 39,000  Level Fort Worth Center
05:06PM 33.8542 -94.0969 91° East 444 511 39,000  Level Fort Worth Center
05:07PM 33.8172 -93.9611 108° East 433 498 39,000  Level Fort Worth Center
05:08PM 33.7839 -93.8225 106° East 428 493 39,000  Level Fort Worth Center
05:09PM 33.7467 -93.6839 108° East 428 493 39,000  Level Fort Worth Center
05:10PM 33.7111 -93.5458 107° East 438 504 39,000  Level Fort Worth Center
05:11PM 33.6775 -93.4075 106° East 433 498 39,000  Level Fort Worth Center
05:12PM 33.6417 -93.2669 107° East 433 498 39,000  Level Fort Worth Center
05:13PM 33.6036 -93.1314 109° East 433 498 39,000  Level Fort Worth Center
05:14PM 33.5678 -92.9986 108° East 433 498 39,000  Level Fort Worth Center
05:15PM 33.5339 -92.8633 107° East 427 491 39,000  Level Fort Worth Center
05:16PM 33.4975 -92.7308 108° East 422 486 39,000  Level Fort Worth Center
05:17PM 33.4633 -92.5981 107° East 417 480 39,000  Level Fort Worth Center
05:18PM 33.4311 -92.4681 107° East 417 480 39,000  Level Fort Worth Center
05:19PM 33.3967 -92.3356 107° East 417 480 39,000  Level Fort Worth Center
05:20PM 33.3517 -92.1803 109° East 416 479 39,000  Level Memphis Center
05:21PM 33.3139 -92.0475 109° East 416 479 39,000  Level Memphis Center
05:22PM 33.2719 -91.9003 109° East 426 490 39,000  Level Memphis Center
05:23PM 33.2339 -91.7678 109° East 426 490 39,000  Level Memphis Center
05:24PM 33.1978 -91.6383 108° East 426 490 39,000  Level Memphis Center
05:25PM 33.1614 -91.5036 108° East 426 490 39,000  Level Memphis Center
05:26PM 33.1250 -91.3742 109° East 426 490 39,000  Level Memphis Center
05:27PM 33.0883 -91.2450 109° East 420 483 39,000  Level Memphis Center
05:28PM 33.0517 -91.1156 109° East 415 478 39,000  Level Memphis Center
05:29PM 33.0147 -90.9842 109° East 415 478 39,000  Level Memphis Center
05:30PM 32.9778 -90.8550 109° East 415 478 39,000  Level Memphis Center
05:31PM 32.9408 -90.7211 108° East 415 478 39,000  Level Memphis Center
05:32PM 32.9033 -90.5897 109° East 415 478 39,000  Level Memphis Center
05:33PM 32.8661 -90.4561 108° East 420 483 39,000  Level Memphis Center
05:34PM 32.8264 -90.3275 110° East 420 483 39,000  Level Memphis Center
05:35PM 32.7928 -90.2089 109° East 420 483 39,000  Level Memphis Center
05:36PM 32.7531 -90.0756 109° East 420 483 39,000  Level Memphis Center
05:37PM 32.7150 -89.9450 109° East 425 489 39,000  Level Memphis Center
05:38PM 32.6769 -89.8119 109° East 425 489 39,000  Level Memphis Center
05:39PM 32.6386 -89.6814 109° East 425 489 39,000  Level Memphis Center
05:40PM 32.6003 -89.5486 109° East 425 489 39,000  Level Memphis Center
05:41PM 32.5575 -89.4033 109° East 425 489 39,000  Level Memphis Center
05:42PM 32.5211 -89.2758 109° East 425 489 39,000  Level Memphis Center
05:43PM 32.4822 -89.1433 109° East 425 489 39,000  Level Memphis Center
05:44PM 32.4433 -89.0108 109° East 425 489 39,000  Level Memphis Center
05:46PM 32.3656 -88.7722 111° Southeast 436 502 39,000  Level Atlanta Center
05:47PM 32.3139 -88.6444 116° Southeast 436 502 39,000  Level Atlanta Center
05:48PM 32.2644 -88.5142 114° Southeast 436 502 39,000  Level Atlanta Center
05:49PM 32.2169 -88.3839 113° Southeast 431 496 39,000  Level Atlanta Center
05:50PM 32.1650 -88.2564 116° Southeast 431 496 39,000  Level Atlanta Center
05:51PM 32.1153 -88.1242 114° Southeast 431 496 39,000  Level Atlanta Center
05:52PM 32.0689 -88.0117 116° Southeast 431 496 39,000  Level Atlanta Center
05:53PM 32.0186 -87.8797 114° Southeast 431 496 39,000  Level Atlanta Center
05:54PM 31.9664 -87.7478 115° Southeast 431 496 39,000  Level Atlanta Center
05:55PM 31.8969 -87.6275 124° Southeast 436 502 39,000  Level Atlanta Center
05:56PM 31.8208 -87.5167 129° Southeast 436 502 39,000  Level Atlanta Center
05:57PM 31.7403 -87.4064 131° Southeast 441 507 39,000  Level Atlanta Center
05:58PM 31.6683 -87.2889 126° Southeast 441 507 39,000  Level Atlanta Center
05:59PM 31.6197 -87.1556 113° Southeast 436 502 39,000  Level Atlanta Center
06:03PM 31.4067 -86.5972 114° Southeast 444 511 39,000  Level Jacksonville Center
06:04PM 31.3583 -86.4639 113° Southeast 444 511 39,000  Level Jacksonville Center
06:05PM 31.3078 -86.3308 114° Southeast 444 511 39,000  Level Jacksonville Center
06:06PM 31.2569 -86.1978 114° Southeast 444 511 39,000  Level Jacksonville Center
06:07PM 31.2061 -86.0647 114° Southeast 439 505 39,000 -120 Level Jacksonville Center
06:08PM 31.1572 -85.9319 113° Southeast 439 505 38,800 -600 Descending Jacksonville Center
06:09PM 31.1061 -85.8017 115° Southeast 444 511 37,800 -960 Descending Jacksonville Center
06:10PM 31.0567 -85.6692 114° Southeast 444 511 36,900 -960 Descending Jacksonville Center
06:11PM 31.0075 -85.5319 113° Southeast 439 505 35,900 -1,020 Descending Jacksonville Center
06:12PM 30.9581 -85.3950 113° Southeast 451 519 34,900 -1,080 Descending Jacksonville Center
06:13PM 30.8875 -85.2697 123° Southeast 451 519 33,800 -960 Descending Jacksonville Center
06:14PM 30.8061 -85.1492 128° Southeast 464 534 33,000 -420 Descending Jacksonville Center
06:15PM 30.7247 -85.0264 128° Southeast 474 545 33,000 -600 Level Jacksonville Center
06:16PM 30.6494 -84.9017 125° Southeast 474 545 31,900 -1,200 Descending Jacksonville Center
06:17PM 30.6558 -84.7544 87° East 434 499 30,600 -1,320 Descending Jacksonville Center
06:18PM 30.6892 -84.6150 74° East 424 488 29,300 -840 Descending Jacksonville Center
06:19PM 30.7181 -84.4875 75° East 441 507 29,000 -180 Descending Jacksonville Center
06:20PM 30.7133 -84.3422 92° East 447 514 29,000  Level Jacksonville Center
06:21PM 30.6836 -84.2092 105° East 430 495 29,000  Level Jacksonville Center
06:22PM 30.6556 -84.0711 103° East 430 495 29,000  Level Jacksonville Center
06:23PM 30.6256 -83.9356 104° East 430 495 29,000 -180 Level Jacksonville Center
06:24PM 30.5931 -83.8025 106° East 435 501 28,700 -1,200 Descending Jacksonville Center
06:25PM 30.5689 -83.6669 102° East 430 495 26,600 -2,280 Descending Jacksonville Center
06:26PM 30.5425 -83.5414 104° East 416 479 24,200 -1,500 Descending Jacksonville Center
06:27PM 30.5328 -83.4158 95° East 405 466 23,700 -840 Descending Jacksonville Center
06:28PM 30.5331 -83.2833 90° East 385 443 22,600 -1,080 Descending Jacksonville Center
06:29PM 30.5856 -83.1822 59° Northeast 359 413 21,600 -1,020 Descending Jacksonville Center
06:30PM 30.6422 -83.0858 56° Northeast 347 399 20,600 -1,020 Descending Jacksonville Center
06:31PM 30.6361 -82.9697 93° East 339 390 19,600 -1,020 Descending Jacksonville Center
06:32PM 30.6297 -82.8539 94° East 344 396 18,600 -1,200 Descending Jacksonville Center
06:33PM 30.6172 -82.7431 97° East 349 402 17,300 -1,680 Descending Jacksonville Center
06:34PM 30.6044 -82.6319 98° East 349 402 15,300 -2,100 Descending Jacksonville Center
06:35PM 30.5958 -82.5450 97° East 338 389 13,400 -2,100 Descending Jacksonville Center
06:36PM 30.5853 -82.4389 97° East 329 379 11,400 -1,260 Descending Jacksonville Center
06:37PM 30.5681 -82.3522 103° East 298 343 11,000 -1,080 Descending Jacksonville Center
06:38PM 30.5447 -82.2656 107° East 265 305 9,400 -1,620 Descending Jacksonville Center
06:39PM 30.5150 -82.1667 109° East 273 314 7,500 -1,740 Descending Jacksonville Center
06:40PM 30.4981 -82.1042 107° East 254 292 5,900 -1,620 Descending Jacksonville Center
06:41PM 30.4764 -82.0247 108° East 244 281 4,600 -840 Descending Jacksonville Center
06:42PM 30.4553 -81.9575 110° East 219 252 4,100 -720 Descending Jacksonville Center
06:43PM 30.4444 -81.9142 106° East 164 189 3,200 -1,020 Descending Jacksonville Center
06:44PM 30.4461 -81.8614 88° East 171 197 2,300 -660 Descending Jacksonville Center
06:45PM 30.4622 -81.8081 71° East 149 171 1,900 -480 Descending Jacksonville Center
06:46PM 30.4744 -81.7694 70° East 128 147 1,300 -720 Descending Jacksonville Center
06:47PM 30.4847 -81.7331 72° East 123 142 600 -780 Descending Jacksonville Center
06:49PM 30.4941 -81.6879 127° Southeast  Level Estimated
06:56PM 30.4941 -81.6879 311° West  Level Estimated